Time;durP1;ratioP1;P1;durP2;ratioP2;P2;SDS_P1;SDS_P2;PMS_P1;PMS_P2;Temp;Humidity;BMP_temperature;BMP_pressure;BME280_temperature;BME280_humidity;BME280_pressure;Samples;Min_cycle;Max_cycle;Signal;HPM_P1;HPM_P2
2023/04/13 00:01:00;;;;;;;0.85;0.82;;;;;;;14.04;42.93;99425.50;4934184;28;20035;-66
2023/04/13 00:03:29;;;;;;;1.92;0.40;;;;;;;13.93;43.44;99420.56;4934258;29;20038;-66
2023/04/13 00:05:55;;;;;;;4.95;0.50;;;;;;;13.88;43.84;99422.97;4935013;28;20040;-65
2023/04/13 00:08:21;;;;;;;0.38;0.20;;;;;;;13.79;42.99;99408.75;4933845;29;20038;-66
2023/04/13 00:10:47;;;;;;;2.63;0.65;;;;;;;13.72;43.26;99401.59;4918066;29;20032;-65
2023/04/13 00:13:14;;;;;;;3.00;0.47;;;;;;;13.71;43.76;99416.06;4933728;28;20055;-65
2023/04/13 00:15:40;;;;;;;1.58;0.30;;;;;;;13.70;44.55;99411.72;4949773;28;20027;-66
2023/04/13 00:18:07;;;;;;;1.98;0.22;;;;;;;13.66;44.18;99415.78;4933333;29;20051;-66
2023/04/13 00:20:33;;;;;;;2.53;0.17;;;;;;;13.66;43.45;99418.50;4917686;28;20028;-65
2023/04/13 00:22:58;;;;;;;0.20;0.20;;;;;;;13.67;43.76;99417.47;4934384;28;20102;-66
2023/04/13 00:25:23;;;;;;;0.65;0.20;;;;;;;13.68;43.66;99411.09;4933325;28;20059;-64
2023/04/13 00:27:51;;;;;;;2.85;0.35;;;;;;;13.72;45.01;99412.38;4933330;28;20039;-65
2023/04/13 00:30:17;;;;;;;1.80;0.30;;;;;;;13.75;43.62;99407.47;4934733;29;20077;-65
2023/04/13 00:32:44;;;;;;;0.88;0.20;;;;;;;13.80;44.76;99420.38;4933004;28;20032;-66
2023/04/13 00:35:11;;;;;;;1.90;0.30;;;;;;;13.82;43.79;99415.63;4933217;29;20572;-64
2023/04/13 00:37:37;;;;;;;1.33;0.32;;;;;;;13.82;43.40;99423.69;4934295;28;20052;-65
2023/04/13 00:40:07;;;;;;;2.58;0.22;;;;;;;13.81;43.66;99405.91;4933299;28;20094;-65
2023/04/13 00:42:33;;;;;;;1.95;0.40;;;;;;;13.85;43.34;99397.25;4933820;28;20438;-64
2023/04/13 00:44:59;;;;;;;0.57;0.30;;;;;;;13.87;44.60;99405.16;4932927;29;20039;-65
2023/04/13 00:47:26;;;;;;;0.75;0.20;;;;;;;13.88;44.49;99409.50;4931975;28;20036;-65
2023/04/13 00:49:54;;;;;;;3.00;0.50;;;;;;;13.89;44.60;99405.81;4916967;29;20031;-64
2023/04/13 00:52:20;;;;;;;5.80;0.40;;;;;;;13.88;43.52;99396.03;4931706;28;20062;-65
2023/04/13 00:54:47;;;;;;;2.40;0.30;;;;;;;13.89;44.54;99392.34;4932716;28;20528;-65
2023/04/13 00:57:14;;;;;;;4.07;0.32;;;;;;;13.91;45.21;99398.38;4933219;28;20035;-65
2023/04/13 00:59:40;;;;;;;0.47;0.13;;;;;;;13.93;44.72;99388.28;4916925;28;20127;-65
2023/04/13 01:02:06;;;;;;;0.45;0.10;;;;;;;13.96;44.78;99393.25;4933195;28;20142;-62
2023/04/13 01:04:32;;;;;;;3.15;0.38;;;;;;;13.97;44.67;99392.25;4932562;28;20043;-62
2023/04/13 01:07:24;;;;;;;1.60;0.28;;;;;;;13.99;44.88;99366.81;4932536;28;20028;-61
2023/04/13 01:10:00;;;;;;;2.40;0.50;;;;;;;14.01;44.36;99380.09;4916925;28;20437;-62
2023/04/13 01:12:41;;;;;;;3.58;0.40;;;;;;;14.03;44.16;99383.44;4932848;28;20024;-62
2023/04/13 01:15:11;;;;;;;3.58;0.32;;;;;;;14.05;44.08;99381.38;4932537;29;20047;-61
2023/04/13 01:17:38;;;;;;;3.67;0.50;;;;;;;14.10;43.91;99367.38;4916647;29;20036;-62
2023/04/13 01:20:15;;;;;;;5.50;0.63;;;;;;;14.15;43.76;99376.56;4916299;29;20040;-62
2023/04/13 01:22:54;;;;;;;1.15;0.40;;;;;;;14.17;44.99;99369.13;4932986;29;20043;-61
2023/04/13 01:25:35;;;;;;;0.65;0.35;;;;;;;14.23;45.04;99376.44;4932319;28;20046;-62
2023/04/13 01:28:06;;;;;;;2.35;0.43;;;;;;;14.26;43.80;99378.78;4932325;28;20036;-62
2023/04/13 01:30:33;;;;;;;3.65;0.55;;;;;;;14.31;44.68;99384.41;4948377;28;20028;-61
2023/04/13 01:33:01;;;;;;;1.75;0.47;;;;;;;14.33;44.97;99373.47;4916274;28;20035;-61
2023/04/13 01:35:26;;;;;;;2.10;0.75;;;;;;;14.33;43.95;99374.31;4916583;28;20040;-62
2023/04/13 01:37:52;;;;;;;2.78;0.52;;;;;;;14.34;44.83;99392.16;4933421;28;20070;-62
2023/04/13 01:40:20;;;;;;;0.77;0.25;;;;;;;14.37;44.44;99389.09;4932387;28;20222;-62
2023/04/13 01:42:46;;;;;;;3.20;0.30;;;;;;;14.38;43.67;99377.28;4932219;28;20031;-61
2023/04/13 01:45:16;;;;;;;2.10;0.70;;;;;;;14.39;44.82;99378.94;4932651;28;20023;-62
2023/04/13 01:48:04;;;;;;;5.78;0.98;;;;;;;14.40;44.50;99395.97;4932018;28;20036;-62
2023/04/13 01:50:51;;;;;;;2.35;0.50;;;;;;;14.40;44.80;99387.88;4931520;29;20036;-62
2023/04/13 01:53:27;;;;;;;3.70;0.30;;;;;;;14.35;44.33;99398.38;4931874;28;20032;-62
2023/04/13 01:55:53;;;;;;;1.17;0.47;;;;;;;14.31;44.35;99397.88;4931779;29;20121;-62
2023/04/13 01:58:19;;;;;;;1.85;0.70;;;;;;;14.28;44.93;99403.66;4931901;28;20160;-63
2023/04/13 02:00:45;;;;;;;3.58;0.82;;;;;;;14.28;43.99;99397.41;4915779;28;20110;-63
2023/04/13 02:03:11;;;;;;;4.80;0.70;;;;;;;14.27;45.65;99407.34;4931657;28;20535;-62
2023/04/13 02:05:37;;;;;;;2.33;0.60;;;;;;;14.25;44.97;99409.41;4900114;28;20074;-62
2023/04/13 02:08:06;;;;;;;1.90;0.35;;;;;;;14.24;45.47;99410.41;4932950;28;20061;-63
2023/04/13 02:10:33;;;;;;;4.07;0.85;;;;;;;14.24;45.15;99415.81;4916746;29;20036;-62
2023/04/13 02:13:03;;;;;;;3.78;0.55;;;;;;;14.22;44.91;99398.16;4935073;28;20498;-62
2023/04/13 02:15:28;;;;;;;3.28;0.40;;;;;;;14.23;44.52;99395.31;4939100;28;20495;-62
2023/04/13 02:17:54;;;;;;;1.63;0.35;;;;;;;14.22;44.34;99395.47;4918315;28;20036;-62
2023/04/13 02:20:20;;;;;;;2.65;0.60;;;;;;;14.26;44.40;99413.78;4931891;28;20525;-62
2023/04/13 02:22:45;;;;;;;1.83;0.60;;;;;;;14.28;44.79;99409.03;4931578;28;20155;-63
2023/04/13 02:25:12;;;;;;;3.08;0.77;;;;;;;14.30;44.47;99430.38;4931480;29;20475;-62
2023/04/13 02:27:38;;;;;;;1.52;1.05;;;;;;;14.31;45.63;99424.81;4931812;28;20122;-61
2023/04/13 02:30:13;;;;;;;5.70;1.38;;;;;;;14.33;45.17;99421.97;4915710;28;20147;-62
2023/04/13 02:32:46;;;;;;;3.00;0.43;;;;;;;14.32;44.15;99426.50;4931604;28;20150;-62
2023/04/13 02:35:11;;;;;;;5.70;0.32;;;;;;;14.31;45.15;99424.81;4915697;28;20523;-62
2023/04/13 02:37:40;;;;;;;3.10;0.50;;;;;;;14.32;45.09;99417.63;4932649;28;20040;-62
2023/04/13 02:40:08;;;;;;;0.70;0.40;;;;;;;14.31;45.29;99435.59;4931638;28;20078;-62
2023/04/13 02:42:34;;;;;;;3.22;0.77;;;;;;;14.33;45.55;99430.88;4931606;29;20028;-62
2023/04/13 02:45:00;;;;;;;4.43;0.70;;;;;;;14.34;45.31;99435.25;4931170;29;20046;-62
2023/04/13 02:47:26;;;;;;;1.08;0.50;;;;;;;14.36;45.82;99438.59;4947176;28;20047;-62
2023/04/13 02:49:51;;;;;;;3.53;0.98;;;;;;;14.34;45.32;99440.66;4915612;29;20526;-62
2023/04/13 02:52:16;;;;;;;1.08;0.32;;;;;;;14.31;45.69;99435.59;4930881;28;20059;-62
2023/04/13 02:54:42;;;;;;;1.77;0.30;;;;;;;14.31;44.36;99440.16;4946998;28;20032;-64
2023/04/13 02:57:12;;;;;;;0.47;0.45;;;;;;;14.33;45.02;99449.75;4915823;29;20032;-62
2023/04/13 02:59:40;;;;;;;4.47;0.43;;;;;;;14.33;45.91;99448.91;4931108;29;20093;-62
2023/04/13 03:02:06;;;;;;;4.40;0.95;;;;;;;14.33;45.79;99463.22;4931059;29;20085;-62
2023/04/13 03:04:31;;;;;;;3.95;0.80;;;;;;;14.33;45.35;99463.22;4930959;29;20051;-62
2023/04/13 03:06:57;;;;;;;5.93;0.63;;;;;;;14.31;45.92;99467.94;4915330;28;20484;-62
2023/04/13 03:09:24;;;;;;;1.75;0.30;;;;;;;14.29;44.95;99469.94;4931312;28;20040;-63
2023/04/13 03:11:50;;;;;;;2.80;0.50;;;;;;;14.18;45.70;99458.84;4932123;28;20035;-63
2023/04/13 03:14:19;;;;;;;3.88;0.68;;;;;;;14.22;46.28;99469.03;4931307;28;20032;-64
2023/04/13 03:16:45;;;;;;;3.00;1.25;;;;;;;14.20;45.67;99471.09;4934680;28;20064;-63
2023/04/13 03:19:10;;;;;;;2.70;0.47;;;;;;;14.17;45.41;99484.06;4934217;28;20116;-64
2023/04/13 03:21:36;;;;;;;4.32;0.50;;;;;;;14.13;46.13;99486.28;4934662;28;20476;-66
2023/04/13 03:24:01;;;;;;;2.75;0.63;;;;;;;14.11;45.70;99482.97;4934686;28;20084;-65
2023/04/13 03:26:27;;;;;;;1.52;0.43;;;;;;;14.09;46.66;99505.72;4918469;29;20468;-66
2023/04/13 03:28:52;;;;;;;6.18;1.00;;;;;;;14.06;45.82;99498.00;4950241;28;20523;-66
2023/04/13 03:31:18;;;;;;;2.92;0.65;;;;;;;14.02;45.63;99516.38;4935405;28;20031;-67
2023/04/13 03:33:44;;;;;;;3.03;0.60;;;;;;;13.97;45.83;99518.78;4934307;28;20026;-65
2023/04/13 03:36:09;;;;;;;5.70;0.73;;;;;;;13.95;47.06;99508.22;4934632;28;20035;-66
2023/04/13 03:38:35;;;;;;;2.78;0.47;;;;;;;13.94;46.23;99516.44;4934291;28;20032;-65
2023/04/13 03:41:00;;;;;;;1.95;0.75;;;;;;;13.94;46.57;99521.84;4935297;28;20395;-64
2023/04/13 03:43:26;;;;;;;0.43;0.40;;;;;;;13.95;46.53;99526.22;4934822;28;20097;-63
2023/04/13 03:45:52;;;;;;;2.17;0.77;;;;;;;13.95;46.67;99531.59;4933806;28;20035;-63
2023/04/13 03:48:18;;;;;;;3.03;0.47;;;;;;;13.93;46.62;99539.03;4934134;29;20035;-62
2023/04/13 03:50:44;;;;;;;0.77;0.30;;;;;;;13.94;47.66;99530.75;4949981;28;20107;-62
2023/04/13 03:53:09;;;;;;;0.20;0.20;;;;;;;13.98;46.47;99539.31;4933782;29;20034;-62
2023/04/13 03:55:35;;;;;;;1.48;0.60;;;;;;;13.99;46.57;99540.97;4935001;28;20054;-62
2023/04/13 03:58:01;;;;;;;2.28;0.35;;;;;;;14.01;47.32;99549.72;4917943;28;20059;-62
2023/04/13 04:00:26;;;;;;;1.25;0.30;;;;;;;14.00;47.27;99556.09;4933877;28;20519;-62
2023/04/13 04:02:51;;;;;;;3.08;0.32;;;;;;;14.00;47.16;99550.72;4949586;28;20036;-62
2023/04/13 04:05:17;;;;;;;2.47;0.50;;;;;;;14.01;46.28;99560.50;4949582;28;20044;-62
2023/04/13 04:07:42;;;;;;;4.28;0.50;;;;;;;14.02;47.41;99556.75;4933467;28;20404;-62
2023/04/13 04:10:09;;;;;;;1.00;0.43;;;;;;;13.99;46.74;99559.81;4933507;28;20052;-62
2023/04/13 04:12:35;;;;;;;1.50;0.40;;;;;;;14.01;47.49;99571.25;4933866;28;20031;-62
2023/04/13 04:15:00;;;;;;;1.38;0.30;;;;;;;14.01;47.27;99572.06;4933576;28;20039;-62
2023/04/13 04:17:25;;;;;;;5.80;0.47;;;;;;;14.00;46.83;99578.50;4933209;28;20032;-62
2023/04/13 04:19:51;;;;;;;4.35;0.57;;;;;;;14.01;47.13;99579.34;4934339;28;20502;-62
2023/04/13 04:22:17;;;;;;;0.20;0.20;;;;;;;14.01;46.49;99580.16;4934332;28;20044;-61
2023/04/13 04:24:42;;;;;;;1.30;0.40;;;;;;;13.99;47.16;99584.88;4933187;28;20123;-63
2023/04/13 04:27:08;;;;;;;0.70;0.22;;;;;;;14.01;46.23;99582.03;4934484;29;20024;-61
2023/04/13 04:29:33;;;;;;;4.25;0.30;;;;;;;13.97;47.14;99588.78;4917191;28;20451;-61
2023/04/13 04:32:04;;;;;;;2.63;0.60;;;;;;;13.94;46.94;99599.91;4917452;28;20503;-62
2023/04/13 04:34:30;;;;;;;1.25;0.40;;;;;;;13.90;46.78;99604.00;4901918;28;20460;-62
2023/04/13 04:36:56;;;;;;;0.60;0.20;;;;;;;13.89;47.88;99613.06;4948958;28;20491;-61
2023/04/13 04:39:22;;;;;;;0.20;0.20;;;;;;;13.90;47.34;99610.19;4902190;28;20038;-62
2023/04/13 04:41:53;;;;;;;1.85;0.75;;;;;;;13.90;47.62;99620.16;4933114;29;20032;-61
2023/04/13 04:44:23;;;;;;;0.28;0.28;;;;;;;13.91;47.01;99627.19;4917647;28;20040;-61
2023/04/13 04:46:52;;;;;;;0.45;0.13;;;;;;;13.88;46.45;99635.63;4932961;28;20127;-62
2023/04/13 04:49:20;;;;;;;1.48;0.32;;;;;;;13.89;46.69;99635.44;4934356;28;20089;-61
2023/04/13 04:51:47;;;;;;;1.55;0.20;;;;;;;13.93;46.81;99639.44;4932748;28;20031;-61
2023/04/13 04:54:15;;;;;;;2.35;0.50;;;;;;;13.94;47.23;99642.97;4934324;29;20020;-61
2023/04/13 04:56:41;;;;;;;0.20;0.20;;;;;;;13.95;45.89;99653.59;4917213;28;20032;-61
2023/04/13 04:59:07;;;;;;;3.05;0.25;;;;;;;13.96;47.08;99657.94;4932615;28;20066;-62
2023/04/13 05:01:33;;;;;;;3.65;0.20;;;;;;;14.00;46.45;99658.41;4932537;28;20503;-62
2023/04/13 05:04:00;;;;;;;0.13;0.13;;;;;;;14.01;46.29;99658.22;4933622;28;20514;-61
2023/04/13 05:06:26;;;;;;;0.40;0.40;;;;;;;14.05;45.87;99669.47;4949326;28;20035;-61
2023/04/13 05:08:51;;;;;;;1.85;0.60;;;;;;;14.09;46.80;99670.81;4917081;28;20503;-62
2023/04/13 05:11:17;;;;;;;3.08;0.10;;;;;;;14.16;46.49;99679.00;4932701;28;20048;-62
2023/04/13 05:13:42;;;;;;;2.88;0.35;;;;;;;14.18;46.98;99680.47;4932492;28;20036;-61
2023/04/13 05:16:09;;;;;;;3.88;0.30;;;;;;;14.21;45.99;99669.34;4932780;28;20051;-61
2023/04/13 05:18:43;;;;;;;1.17;0.13;;;;;;;14.29;46.23;99685.44;4932858;29;20462;-62
2023/04/13 05:21:09;;;;;;;0.52;0.30;;;;;;;14.35;45.65;99690.13;4932381;29;20115;-61
2023/04/13 05:23:34;;;;;;;0.30;0.30;;;;;;;14.43;45.18;99687.38;4932276;29;20119;-61
2023/04/13 05:26:00;;;;;;;1.27;0.30;;;;;;;14.50;45.57;99693.72;4916768;28;20035;-62
2023/04/13 05:28:27;;;;;;;0.50;0.20;;;;;;;14.61;46.18;99700.53;4932327;28;20407;-61
2023/04/13 05:30:52;;;;;;;2.47;0.13;;;;;;;14.68;44.99;99700.66;4932236;28;20082;-62
2023/04/13 05:33:19;;;;;;;2.03;0.40;;;;;;;14.73;45.80;99709.00;4932665;29;20028;-61
2023/04/13 05:35:44;;;;;;;2.17;0.50;;;;;;;14.83;45.27;99714.97;4942426;28;20596;-61
2023/04/13 05:38:10;;;;;;;0.43;0.28;;;;;;;14.88;45.97;99712.59;4932626;28;20039;-62
2023/04/13 05:40:35;;;;;;;0.65;0.40;;;;;;;14.96;45.92;99720.59;4916678;28;20491;-61
2023/04/13 05:43:01;;;;;;;1.17;0.30;;;;;;;15.05;45.12;99723.00;4931882;28;20036;-61
2023/04/13 05:45:27;;;;;;;1.60;0.73;;;;;;;15.15;45.50;99715.47;4948322;28;20024;-62
2023/04/13 05:47:53;;;;;;;3.40;0.30;;;;;;;15.28;44.77;99719.38;4900692;28;20028;-62
2023/04/13 05:50:18;;;;;;;0.55;0.30;;;;;;;15.39;45.48;99724.28;4932034;28;20542;-61
2023/04/13 05:52:43;;;;;;;2.03;0.60;;;;;;;15.46;44.83;99728.81;4947786;28;20035;-62
2023/04/13 05:55:09;;;;;;;1.08;0.30;;;;;;;15.51;45.01;99734.47;4931996;28;20059;-61
2023/04/13 05:57:34;;;;;;;1.20;1.10;;;;;;;15.54;45.47;99728.69;4932315;28;20031;-61
2023/04/13 06:00:00;;;;;;;2.83;0.30;;;;;;;15.64;44.40;99742.72;4900482;28;20500;-62
2023/04/13 06:02:25;;;;;;;1.38;0.40;;;;;;;15.74;45.72;99745.97;4932066;28;20055;-62
2023/04/13 06:04:53;;;;;;;1.58;0.50;;;;;;;15.85;45.38;99746.53;4947601;28;20043;-61
2023/04/13 06:07:20;;;;;;;5.80;1.10;;;;;;;15.94;44.37;99753.50;4932975;28;20038;-61
2023/04/13 06:09:46;;;;;;;1.48;0.38;;;;;;;16.05;43.60;99753.00;4916197;28;20126;-62
2023/04/13 06:12:12;;;;;;;3.20;0.55;;;;;;;16.19;45.39;99762.94;4900614;28;20118;-62
2023/04/13 06:14:37;;;;;;;3.33;0.43;;;;;;;16.22;44.27;99765.22;4931870;29;20052;-62
2023/04/13 06:17:03;;;;;;;3.03;0.93;;;;;;;16.23;44.26;99764.19;4915835;29;20141;-62
2023/04/13 06:19:28;;;;;;;2.00;0.17;;;;;;;16.34;45.42;99769.09;4931638;28;20526;-62
2023/04/13 06:21:54;;;;;;;1.58;0.52;;;;;;;16.42;43.71;99773.53;4932901;28;20031;-61
2023/04/13 06:24:19;;;;;;;4.50;0.82;;;;;;;16.51;45.00;99773.22;4933270;29;20032;-62
2023/04/13 06:26:44;;;;;;;3.15;0.43;;;;;;;16.65;44.99;99779.63;4947396;28;20039;-61
2023/04/13 06:29:10;;;;;;;4.20;0.32;;;;;;;16.68;43.88;99774.69;4915888;28;20044;-61
2023/04/13 06:31:35;;;;;;;1.70;0.75;;;;;;;16.79;43.74;99793.09;4916436;28;20118;-62
2023/04/13 06:34:01;;;;;;;2.63;0.55;;;;;;;16.79;44.03;99789.53;4934722;28;20050;-62
2023/04/13 06:36:27;;;;;;;4.50;0.60;;;;;;;16.94;43.51;99790.31;4918477;29;20035;-61
2023/04/13 06:38:54;;;;;;;2.08;0.40;;;;;;;16.96;45.05;99792.78;4934162;28;20154;-61
2023/04/13 06:41:19;;;;;;;1.92;0.73;;;;;;;16.94;44.13;99789.47;4931656;29;20040;-61
2023/04/13 06:43:45;;;;;;;4.18;0.60;;;;;;;16.86;43.96;99802.06;4947719;28;20507;-61
2023/04/13 06:46:12;;;;;;;3.22;0.60;;;;;;;16.82;44.63;99803.50;4931770;28;20090;-61
2023/04/13 06:48:38;;;;;;;6.15;0.80;;;;;;;16.79;43.83;99805.75;4948492;28;20082;-62
2023/04/13 06:51:03;;;;;;;8.27;0.90;;;;;;;16.81;45.04;99814.50;4918588;28;20499;-61
2023/04/13 06:53:28;;;;;;;2.42;0.68;;;;;;;16.83;44.55;99816.00;4934922;28;20048;-61
2023/04/13 06:55:54;;;;;;;4.95;1.00;;;;;;;16.82;44.44;99806.22;4935748;28;20452;-61
2023/04/13 06:58:22;;;;;;;3.95;0.88;;;;;;;16.85;44.69;99813.09;4934558;28;20032;-61
2023/04/13 07:00:47;;;;;;;2.78;0.73;;;;;;;16.91;43.32;99814.19;4934285;28;20114;-61
2023/04/13 07:03:13;;;;;;;3.72;0.90;;;;;;;16.88;44.64;99818.97;4934621;29;20034;-61
2023/04/13 07:05:39;;;;;;;4.65;0.68;;;;;;;16.85;45.22;99824.78;4935332;28;20048;-62
2023/04/13 07:08:05;;;;;;;4.38;0.50;;;;;;;16.82;43.62;99825.16;4935241;28;20032;-61
2023/04/13 07:10:30;;;;;;;5.72;1.15;;;;;;;16.80;44.49;99826.38;4934113;28;20640;-62
2023/04/13 07:12:56;;;;;;;2.60;0.90;;;;;;;16.75;44.87;99818.03;4949964;28;20032;-61
2023/04/13 07:15:21;;;;;;;4.07;0.80;;;;;;;16.79;45.09;99841.78;4935662;29;20535;-61
2023/04/13 07:17:48;;;;;;;4.00;0.90;;;;;;;16.79;43.96;99840.94;4934085;28;20036;-61
2023/04/13 07:20:13;;;;;;;3.28;0.60;;;;;;;16.81;45.20;99837.00;4934090;29;20128;-61
2023/04/13 07:22:39;;;;;;;3.20;1.08;;;;;;;16.86;43.99;99836.44;4935373;28;20118;-61
2023/04/13 07:25:05;;;;;;;5.82;1.77;;;;;;;16.79;44.06;99835.50;4934137;28;20550;-61
2023/04/13 07:27:31;;;;;;;3.63;0.80;;;;;;;16.82;45.15;99857.63;4934368;28;20038;-61
2023/04/13 07:29:57;;;;;;;9.02;0.85;;;;;;;16.78;44.77;99842.78;4934185;28;20478;-61
2023/04/13 07:32:22;;;;;;;4.05;1.15;;;;;;;16.75;44.72;99851.28;4934004;28;20166;-61
2023/04/13 07:34:48;;;;;;;8.27;1.85;;;;;;;16.79;44.25;99852.59;4935709;28;20048;-61
2023/04/13 07:37:13;;;;;;;5.28;1.10;;;;;;;16.81;44.51;99850.50;4935454;28;20056;-61
2023/04/13 07:39:39;;;;;;;4.60;0.57;;;;;;;16.78;44.99;99866.28;4935629;29;20083;-61
2023/04/13 07:42:04;;;;;;;5.90;0.73;;;;;;;16.76;45.10;99866.50;4933597;28;20036;-61
2023/04/13 07:44:30;;;;;;;4.97;1.17;;;;;;;16.80;44.26;99870.50;4949649;28;20055;-61
2023/04/13 07:46:55;;;;;;;11.30;0.93;;;;;;;16.84;43.81;99866.38;4933839;28;20047;-61
2023/04/13 07:49:22;;;;;;;2.38;0.70;;;;;;;16.84;43.74;99871.78;4933713;29;20120;-61
2023/04/13 07:51:48;;;;;;;6.80;1.25;;;;;;;16.85;44.53;99878.88;4949516;28;20027;-61
2023/04/13 07:54:14;;;;;;;5.13;1.60;;;;;;;16.96;44.27;99884.78;4934198;28;20377;-61
2023/04/13 07:56:40;;;;;;;11.13;1.73;;;;;;;17.05;43.16;99880.94;4933621;29;20042;-61
2023/04/13 07:59:05;;;;;;;6.63;0.93;;;;;;;17.00;44.24;99896.91;4902193;28;20507;-61
2023/04/13 08:01:31;;;;;;;8.18;1.45;;;;;;;16.98;43.65;99897.09;4934289;28;20448;-61
2023/04/13 08:03:56;;;;;;;9.50;1.33;;;;;;;17.03;44.44;99902.75;4934434;28;20060;-61
2023/04/13 08:06:22;;;;;;;6.57;1.00;;;;;;;17.06;44.32;99902.38;4933718;28;20028;-61
2023/04/13 08:08:47;;;;;;;6.72;1.48;;;;;;;17.06;44.04;99913.19;4917792;28;20035;-61
2023/04/13 08:11:13;;;;;;;11.30;1.48;;;;;;;17.12;43.46;99922.41;4933528;28;20089;-62
2023/04/13 08:13:38;;;;;;;5.57;2.45;;;;;;;17.10;43.46;99916.34;4933269;28;20114;-61
2023/04/13 08:16:04;;;;;;;6.65;1.30;;;;;;;17.10;44.42;99913.66;4933447;28;20081;-61
2023/04/13 08:18:31;;;;;;;7.25;1.50;;;;;;;17.12;42.88;99930.53;4933870;29;20483;-61
2023/04/13 08:20:57;;;;;;;7.15;1.67;;;;;;;17.16;43.56;99934.53;4949358;28;20042;-61
2023/04/13 08:23:22;;;;;;;7.57;1.95;;;;;;;17.16;43.85;99934.53;4933158;29;20081;-61
2023/04/13 08:25:48;;;;;;;6.45;1.00;;;;;;;17.18;43.70;99932.47;4901592;28;20403;-62
2023/04/13 08:28:13;;;;;;;5.95;1.30;;;;;;;17.26;43.27;99937.72;4917209;28;20027;-61
2023/04/13 08:30:39;;;;;;;4.22;1.52;;;;;;;17.30;43.16;99930.91;4917789;29;20495;-62
2023/04/13 08:33:05;;;;;;;8.50;1.08;;;;;;;17.42;42.97;99942.88;4933239;28;20047;-61
2023/04/13 08:35:31;;;;;;;6.50;1.33;;;;;;;17.85;42.85;99947.22;4933300;28;20066;-61
2023/04/13 08:37:56;;;;;;;4.68;1.33;;;;;;;17.87;43.46;99956.00;4934353;28;20043;-61
2023/04/13 08:40:22;;;;;;;6.55;1.35;;;;;;;17.90;43.17;99950.19;4932877;28;20032;-61
2023/04/13 08:42:47;;;;;;;7.43;1.10;;;;;;;17.96;43.04;99946.69;4933979;28;20395;-62
2023/04/13 08:45:13;;;;;;;7.68;2.17;;;;;;;18.16;42.65;99949.53;4933246;28;20103;-61
2023/04/13 08:47:40;;;;;;;3.92;1.08;;;;;;;18.32;41.88;99951.06;4916812;29;20032;-62
2023/04/13 08:50:06;;;;;;;7.07;1.30;;;;;;;18.35;42.44;99948.78;4932758;29;20042;-61
2023/04/13 08:52:33;;;;;;;4.43;1.38;;;;;;;18.84;41.69;99951.34;4916677;28;20040;-61
2023/04/13 08:54:59;;;;;;;11.10;1.65;;;;;;;19.48;40.67;99950.84;4932828;28;20059;-61
2023/04/13 08:57:26;;;;;;;5.95;1.40;;;;;;;20.00;40.33;99950.81;4933099;28;20023;-61
2023/04/13 08:59:52;;;;;;;11.50;1.60;;;;;;;20.43;40.02;99953.91;4932692;28;20032;-62
2023/04/13 09:02:23;;;;;;;6.03;1.67;;;;;;;20.71;39.59;99948.97;4933723;28;20115;-61
2023/04/13 09:04:49;;;;;;;4.60;1.23;;;;;;;21.05;39.75;99960.53;4932468;29;20606;-62
2023/04/13 09:07:25;;;;;;;7.90;1.10;;;;;;;21.09;40.17;99961.78;4948188;28;20031;-61
2023/04/13 09:09:58;;;;;;;8.10;1.38;;;;;;;21.17;39.72;99980.59;4933644;28;20051;-62
2023/04/13 09:12:27;;;;;;;;;;;;;;;21.15;40.33;99975.38;4932335;28;20403;-61
2023/04/13 09:14:52;;;;;;;5.63;1.20;;;;;;;21.03;39.78;99974.34;4932334;28;19915;-62
2023/04/13 09:17:25;;;;;;;12.52;1.45;;;;;;;20.78;40.19;99973.44;4932389;28;20032;-61
2023/04/13 09:19:51;;;;;;;7.32;1.75;;;;;;;20.62;39.89;99980.19;4935122;28;20414;-61
2023/04/13 09:22:17;;;;;;;7.07;2.25;;;;;;;20.52;39.82;99989.88;4916387;28;20027;-61
2023/04/13 09:24:42;;;;;;;10.30;1.90;;;;;;;20.38;39.73;99989.06;4900625;28;20028;-62
2023/04/13 09:27:20;;;;;;;7.82;1.40;;;;;;;20.21;40.32;99996.78;4932650;29;20392;-61
2023/04/13 09:29:54;;;;;;;10.75;1.05;;;;;;;20.14;39.95;99995.97;4932242;29;20031;-61
2023/04/13 09:32:26;;;;;;;4.93;0.98;;;;;;;20.08;39.75;99998.69;4932210;29;20070;-61
2023/04/13 09:35:03;;;;;;;6.75;1.50;;;;;;;19.96;40.29;100011.28;4947996;28;20036;-61
2023/04/13 09:37:33;;;;;;;4.65;0.88;;;;;;;19.76;40.32;100011.28;4932226;28;20046;-61
2023/04/13 09:40:11;;;;;;;10.57;1.40;;;;;;;19.63;40.02;100020.25;4916468;28;20032;-61
2023/04/13 09:42:56;;;;;;;6.82;1.48;;;;;;;19.64;40.02;100019.22;4917043;28;20035;-61
2023/04/13 09:45:22;;;;;;;9.20;1.48;;;;;;;19.86;39.56;100024.44;4932104;28;20044;-61
2023/04/13 09:47:47;;;;;;;6.47;1.77;;;;;;;20.19;39.23;100020.66;4931920;28;20122;-61
2023/04/13 09:50:22;;;;;;;7.82;1.17;;;;;;;20.71;38.64;100033.34;4933095;28;20031;-61
2023/04/13 09:53:03;;;;;;;7.82;1.42;;;;;;;21.18;38.49;100026.69;4947850;28;20082;-61
2023/04/13 09:55:31;;;;;;;4.03;1.00;;;;;;;21.55;38.51;100035.91;4932981;28;20059;-62
2023/04/13 09:58:13;;;;;;;3.13;1.02;;;;;;;21.35;38.51;100030.59;4931857;28;20074;-61
2023/04/13 10:00:41;;;;;;;6.15;1.20;;;;;;;21.03;38.22;100034.28;4932299;28;20023;-61
2023/04/13 10:03:10;;;;;;;3.78;0.90;;;;;;;20.99;38.49;100045.81;4931691;28;20134;-62
2023/04/13 10:05:37;;;;;;;4.13;0.70;;;;;;;20.80;38.78;100031.22;4915947;28;20044;-61
2023/04/13 10:08:03;;;;;;;7.50;0.90;;;;;;;20.58;38.09;100051.59;4931685;29;20158;-61
2023/04/13 10:10:28;;;;;;;8.95;1.35;;;;;;;20.43;39.09;100042.84;4931638;28;20153;-61
2023/04/13 10:12:56;;;;;;;5.50;1.25;;;;;;;20.22;38.24;100052.88;4931695;28;20020;-62
2023/04/13 10:15:24;;;;;;;6.03;1.25;;;;;;;20.15;38.74;100056.66;4933243;29;20023;-61
2023/04/13 10:18:00;;;;;;;10.10;1.17;;;;;;;20.20;38.19;100063.13;4932964;28;20036;-61
2023/04/13 10:20:27;;;;;;;8.80;1.45;;;;;;;20.42;38.50;100071.09;4931351;28;20036;-61
2023/04/13 10:22:53;;;;;;;4.63;1.23;;;;;;;20.52;38.39;100066.06;4931535;28;20118;-61
2023/04/13 10:25:18;;;;;;;5.60;1.15;;;;;;;20.62;37.60;100069.19;4935785;28;20073;-62
2023/04/13 10:27:54;;;;;;;4.43;1.20;;;;;;;20.59;37.93;100065.00;4936028;28;20376;-61
2023/04/13 10:30:21;;;;;;;5.88;1.13;;;;;;;20.64;38.49;100072.50;4935515;28;20562;-61
2023/04/13 10:32:46;;;;;;;3.90;1.10;;;;;;;20.53;37.74;100070.44;4934683;28;20036;-61
2023/04/13 10:35:13;;;;;;;8.23;1.30;;;;;;;20.41;38.20;100072.16;4935987;28;20097;-61
2023/04/13 10:37:40;;;;;;;6.38;1.95;;;;;;;20.39;38.52;100080.50;4903472;28;20090;-61
2023/04/13 10:40:12;;;;;;;4.22;1.15;;;;;;;20.99;37.25;100076.63;4903522;28;20031;-61
2023/04/13 10:42:43;;;;;;;3.33;1.40;;;;;;;21.83;36.40;100079.16;4935857;28;20396;-61
2023/04/13 10:45:20;;;;;;;8.68;1.20;;;;;;;22.93;35.19;100078.38;4934983;28;20071;-62
2023/04/13 10:47:46;;;;;;;4.75;0.90;;;;;;;23.80;34.50;100080.63;4934846;28;20031;-61
2023/04/13 10:50:30;;;;;;;8.98;1.30;;;;;;;23.58;35.22;100079.47;4903450;28;20032;-62
2023/04/13 10:53:06;;;;;;;5.45;1.25;;;;;;;23.14;35.56;100077.94;4936967;28;20525;-61
2023/04/13 10:55:33;;;;;;;9.27;1.75;;;;;;;23.35;34.99;100074.69;4919309;28;20036;-65
2023/04/13 10:57:59;;;;;;;8.15;1.27;;;;;;;23.65;34.64;100078.31;4934625;28;20027;-62
2023/04/13 11:00:26;;;;;;;6.05;1.65;;;;;;;24.31;34.66;100085.50;4935151;29;20103;-64
2023/04/13 11:02:55;;;;;;;3.33;0.93;;;;;;;23.82;34.43;100091.31;4934439;29;20151;-62
2023/04/13 11:05:21;;;;;;;8.07;1.02;;;;;;;23.86;34.81;100087.06;4934504;29;20078;-68
2023/04/13 11:07:48;;;;;;;5.85;1.40;;;;;;;23.76;34.78;100082.97;4934397;29;20060;-63
2023/04/13 11:10:14;;;;;;;7.72;1.30;;;;;;;23.74;34.71;100087.84;4918454;29;20036;-61
2023/04/13 11:12:48;;;;;;;4.50;0.73;;;;;;;23.73;33.64;100083.44;4935905;29;20106;-62
2023/04/13 11:15:19;;;;;;;6.82;1.33;;;;;;;24.34;33.80;100085.84;4950300;29;20403;-62
2023/04/13 11:17:50;;;;;;;3.40;1.00;;;;;;;24.64;33.30;100079.44;4934314;29;20036;-61
2023/04/13 11:20:15;;;;;;;5.55;0.95;;;;;;;24.76;32.97;100092.03;4934169;28;20567;-62
2023/04/13 11:22:41;;;;;;;4.50;1.42;;;;;;;24.56;33.66;100096.25;4918482;28;20119;-62
2023/04/13 11:25:07;;;;;;;3.85;0.90;;;;;;;24.90;33.27;100090.75;4934182;28;20123;-62
2023/04/13 11:27:33;;;;;;;8.00;1.20;;;;;;;25.11;32.58;100092.03;4934501;28;20031;-62
2023/04/13 11:30:06;;;;;;;5.28;1.25;;;;;;;25.48;32.66;100105.44;4933879;28;20491;-62
2023/04/13 11:32:35;;;;;;;;;;;;;;;25.37;32.77;100097.00;4934864;29;20071;-62